sensor_id;sensor_type;location;lat;lon;timestamp;P1;durP1;ratioP1;P2;durP2;ratioP2
48006;SDS011;33771;48.180;11.400;2024-03-02T00:02:34;19.50;;;13.97;;
48006;SDS011;33771;48.180;11.400;2024-03-02T00:05:05;19.70;;;14.67;;
48006;SDS011;33771;48.180;11.400;2024-03-02T00:07:31;19.07;;;13.93;;
48006;SDS011;33771;48.180;11.400;2024-03-02T00:09:57;20.23;;;14.70;;
48006;SDS011;33771;48.180;11.400;2024-03-02T00:12:22;19.73;;;14.43;;
48006;SDS011;33771;48.180;11.400;2024-03-02T00:14:48;18.40;;;14.30;;
48006;SDS011;33771;48.180;11.400;2024-03-02T00:17:17;18.57;;;14.13;;
48006;SDS011;33771;48.180;11.400;2024-03-02T00:19:46;19.00;;;14.20;;
48006;SDS011;33771;48.180;11.400;2024-03-02T00:22:12;20.33;;;13.30;;
48006;SDS011;33771;48.180;11.400;2024-03-02T00:24:37;19.07;;;14.07;;
48006;SDS011;33771;48.180;11.400;2024-03-02T00:27:04;20.73;;;15.70;;
48006;SDS011;33771;48.180;11.400;2024-03-02T00:29:32;20.13;;;15.03;;
48006;SDS011;33771;48.180;11.400;2024-03-02T00:31:59;22.27;;;15.60;;
48006;SDS011;33771;48.180;11.400;2024-03-02T00:34:26;20.20;;;16.23;;
48006;SDS011;33771;48.180;11.400;2024-03-02T00:36:51;21.90;;;16.10;;
48006;SDS011;33771;48.180;11.400;2024-03-02T00:39:17;22.47;;;15.47;;
48006;SDS011;33771;48.180;11.400;2024-03-02T00:41:43;19.70;;;15.37;;
48006;SDS011;33771;48.180;11.400;2024-03-02T00:44:09;18.60;;;14.70;;
48006;SDS011;33771;48.180;11.400;2024-03-02T00:49:25;18.90;;;15.17;;
48006;SDS011;33771;48.180;11.400;2024-03-02T00:51:51;17.37;;;14.27;;
48006;SDS011;33771;48.180;11.400;2024-03-02T00:54:19;20.00;;;15.07;;
48006;SDS011;33771;48.180;11.400;2024-03-02T00:56:49;19.03;;;14.30;;
48006;SDS011;33771;48.180;11.400;2024-03-02T00:59:15;20.93;;;15.17;;
48006;SDS011;33771;48.180;11.400;2024-03-02T01:01:41;19.47;;;15.20;;
48006;SDS011;33771;48.180;11.400;2024-03-02T01:04:07;21.33;;;15.20;;
48006;SDS011;33771;48.180;11.400;2024-03-02T01:06:34;18.87;;;14.80;;
48006;SDS011;33771;48.180;11.400;2024-03-02T01:09:00;19.40;;;14.20;;
48006;SDS011;33771;48.180;11.400;2024-03-02T01:11:25;20.30;;;16.47;;
48006;SDS011;33771;48.180;11.400;2024-03-02T01:13:51;19.97;;;15.53;;
48006;SDS011;33771;48.180;11.400;2024-03-02T01:16:17;20.33;;;15.10;;
48006;SDS011;33771;48.180;11.400;2024-03-02T01:18:42;22.10;;;16.43;;
48006;SDS011;33771;48.180;11.400;2024-03-02T01:21:08;19.77;;;15.00;;
48006;SDS011;33771;48.180;11.400;2024-03-02T01:23:34;18.83;;;14.80;;
48006;SDS011;33771;48.180;11.400;2024-03-02T01:25:59;19.37;;;15.53;;
48006;SDS011;33771;48.180;11.400;2024-03-02T01:28:25;19.87;;;15.20;;
48006;SDS011;33771;48.180;11.400;2024-03-02T01:30:50;19.20;;;15.23;;
48006;SDS011;33771;48.180;11.400;2024-03-02T01:33:16;20.07;;;15.43;;
48006;SDS011;33771;48.180;11.400;2024-03-02T01:35:43;20.77;;;15.67;;
48006;SDS011;33771;48.180;11.400;2024-03-02T01:38:08;20.50;;;14.87;;
48006;SDS011;33771;48.180;11.400;2024-03-02T01:40:34;19.93;;;14.60;;
48006;SDS011;33771;48.180;11.400;2024-03-02T01:43:01;19.90;;;14.93;;
48006;SDS011;33771;48.180;11.400;2024-03-02T01:45:27;21.97;;;15.87;;
48006;SDS011;33771;48.180;11.400;2024-03-02T01:47:53;20.10;;;15.63;;
48006;SDS011;33771;48.180;11.400;2024-03-02T01:50:28;21.70;;;16.70;;
48006;SDS011;33771;48.180;11.400;2024-03-02T01:52:55;20.33;;;15.73;;
48006;SDS011;33771;48.180;11.400;2024-03-02T01:55:21;21.90;;;15.60;;
48006;SDS011;33771;48.180;11.400;2024-03-02T01:57:47;20.43;;;15.07;;
48006;SDS011;33771;48.180;11.400;2024-03-02T02:00:14;23.07;;;16.20;;
48006;SDS011;33771;48.180;11.400;2024-03-02T02:02:40;18.50;;;15.50;;
48006;SDS011;33771;48.180;11.400;2024-03-02T02:05:06;18.73;;;15.37;;
48006;SDS011;33771;48.180;11.400;2024-03-02T02:07:32;27.43;;;18.63;;
48006;SDS011;33771;48.180;11.400;2024-03-02T02:09:58;48.87;;;29.77;;
48006;SDS011;33771;48.180;11.400;2024-03-02T02:12:24;27.70;;;18.57;;
48006;SDS011;33771;48.180;11.400;2024-03-02T02:14:49;21.20;;;16.47;;
48006;SDS011;33771;48.180;11.400;2024-03-02T02:17:15;22.17;;;16.13;;
48006;SDS011;33771;48.180;11.400;2024-03-02T02:19:41;24.63;;;16.23;;
48006;SDS011;33771;48.180;11.400;2024-03-02T02:22:07;23.00;;;15.57;;
48006;SDS011;33771;48.180;11.400;2024-03-02T02:24:33;21.53;;;15.47;;
48006;SDS011;33771;48.180;11.400;2024-03-02T02:26:59;17.90;;;14.53;;
48006;SDS011;33771;48.180;11.400;2024-03-02T02:29:24;19.43;;;14.90;;
48006;SDS011;33771;48.180;11.400;2024-03-02T02:31:50;18.00;;;14.53;;
48006;SDS011;33771;48.180;11.400;2024-03-02T02:34:15;19.70;;;15.30;;
48006;SDS011;33771;48.180;11.400;2024-03-02T02:36:41;19.70;;;15.10;;
48006;SDS011;33771;48.180;11.400;2024-03-02T02:39:11;19.93;;;15.97;;
48006;SDS011;33771;48.180;11.400;2024-03-02T02:41:40;20.60;;;15.60;;
48006;SDS011;33771;48.180;11.400;2024-03-02T02:44:05;20.27;;;15.57;;
48006;SDS011;33771;48.180;11.400;2024-03-02T02:46:31;20.90;;;16.03;;
48006;SDS011;33771;48.180;11.400;2024-03-02T02:48:56;19.87;;;15.03;;
48006;SDS011;33771;48.180;11.400;2024-03-02T02:51:22;20.00;;;15.80;;
48006;SDS011;33771;48.180;11.400;2024-03-02T02:53:48;20.13;;;16.17;;
48006;SDS011;33771;48.180;11.400;2024-03-02T02:56:14;20.67;;;15.07;;
48006;SDS011;33771;48.180;11.400;2024-03-02T02:58:40;19.57;;;15.97;;
48006;SDS011;33771;48.180;11.400;2024-03-02T03:01:06;21.60;;;16.67;;
48006;SDS011;33771;48.180;11.400;2024-03-02T03:03:32;22.73;;;17.23;;
48006;SDS011;33771;48.180;11.400;2024-03-02T03:05:58;22.70;;;17.27;;
48006;SDS011;33771;48.180;11.400;2024-03-02T03:08:23;20.80;;;16.33;;
48006;SDS011;33771;48.180;11.400;2024-03-02T03:10:49;21.03;;;16.93;;
48006;SDS011;33771;48.180;11.400;2024-03-02T03:13:15;24.30;;;18.63;;
48006;SDS011;33771;48.180;11.400;2024-03-02T03:15:40;22.17;;;17.67;;
48006;SDS011;33771;48.180;11.400;2024-03-02T03:18:06;22.87;;;18.63;;
48006;SDS011;33771;48.180;11.400;2024-03-02T03:20:35;25.10;;;19.03;;
48006;SDS011;33771;48.180;11.400;2024-03-02T03:23:01;26.50;;;19.63;;
48006;SDS011;33771;48.180;11.400;2024-03-02T03:25:26;26.27;;;20.00;;
48006;SDS011;33771;48.180;11.400;2024-03-02T03:27:52;26.13;;;19.63;;
48006;SDS011;33771;48.180;11.400;2024-03-02T03:30:17;25.20;;;18.97;;
48006;SDS011;33771;48.180;11.400;2024-03-02T03:32:43;23.80;;;19.00;;
48006;SDS011;33771;48.180;11.400;2024-03-02T03:35:09;23.47;;;18.47;;
48006;SDS011;33771;48.180;11.400;2024-03-02T03:37:34;26.10;;;18.77;;
48006;SDS011;33771;48.180;11.400;2024-03-02T03:40:01;24.43;;;18.70;;
48006;SDS011;33771;48.180;11.400;2024-03-02T03:42:35;25.60;;;18.80;;
48006;SDS011;33771;48.180;11.400;2024-03-02T03:45:01;24.43;;;18.67;;
48006;SDS011;33771;48.180;11.400;2024-03-02T03:47:27;26.80;;;19.63;;
48006;SDS011;33771;48.180;11.400;2024-03-02T03:49:52;27.03;;;19.77;;
48006;SDS011;33771;48.180;11.400;2024-03-02T03:52:18;23.90;;;18.57;;
48006;SDS011;33771;48.180;11.400;2024-03-02T03:54:43;26.87;;;19.07;;
48006;SDS011;33771;48.180;11.400;2024-03-02T03:57:09;25.07;;;18.90;;
48006;SDS011;33771;48.180;11.400;2024-03-02T03:59:35;24.73;;;19.00;;
48006;SDS011;33771;48.180;11.400;2024-03-02T04:02:02;26.53;;;20.20;;
48006;SDS011;33771;48.180;11.400;2024-03-02T04:04:28;29.17;;;19.33;;
48006;SDS011;33771;48.180;11.400;2024-03-02T04:06:53;26.67;;;19.10;;
48006;SDS011;33771;48.180;11.400;2024-03-02T04:09:19;28.67;;;18.60;;
48006;SDS011;33771;48.180;11.400;2024-03-02T04:11:45;27.83;;;19.77;;
48006;SDS011;33771;48.180;11.400;2024-03-02T04:14:11;26.53;;;19.53;;
48006;SDS011;33771;48.180;11.400;2024-03-02T04:16:37;24.73;;;19.40;;
48006;SDS011;33771;48.180;11.400;2024-03-02T04:19:03;23.80;;;18.33;;
48006;SDS011;33771;48.180;11.400;2024-03-02T04:21:29;29.57;;;19.67;;
48006;SDS011;33771;48.180;11.400;2024-03-02T04:23:54;29.17;;;19.77;;
48006;SDS011;33771;48.180;11.400;2024-03-02T04:26:23;27.30;;;19.03;;
48006;SDS011;33771;48.180;11.400;2024-03-02T04:28:50;25.17;;;18.70;;
48006;SDS011;33771;48.180;11.400;2024-03-02T04:31:16;23.70;;;17.60;;
48006;SDS011;33771;48.180;11.400;2024-03-02T04:33:42;25.13;;;18.50;;
48006;SDS011;33771;48.180;11.400;2024-03-02T04:36:07;25.47;;;18.00;;
48006;SDS011;33771;48.180;11.400;2024-03-02T04:38:36;24.97;;;19.70;;
48006;SDS011;33771;48.180;11.400;2024-03-02T04:41:02;26.83;;;18.63;;
48006;SDS011;33771;48.180;11.400;2024-03-02T04:43:28;24.90;;;19.20;;
48006;SDS011;33771;48.180;11.400;2024-03-02T04:45:53;28.60;;;18.90;;
48006;SDS011;33771;48.180;11.400;2024-03-02T04:48:19;27.30;;;19.07;;
48006;SDS011;33771;48.180;11.400;2024-03-02T04:50:44;29.43;;;19.77;;
48006;SDS011;33771;48.180;11.400;2024-03-02T04:53:10;23.73;;;19.27;;
48006;SDS011;33771;48.180;11.400;2024-03-02T04:55:36;26.27;;;18.93;;
48006;SDS011;33771;48.180;11.400;2024-03-02T04:58:04;25.10;;;18.70;;
48006;SDS011;33771;48.180;11.400;2024-03-02T05:00:31;25.87;;;18.43;;
48006;SDS011;33771;48.180;11.400;2024-03-02T05:02:57;25.93;;;18.40;;
48006;SDS011;33771;48.180;11.400;2024-03-02T05:05:23;25.50;;;19.77;;
48006;SDS011;33771;48.180;11.400;2024-03-02T05:07:48;24.77;;;17.53;;
48006;SDS011;33771;48.180;11.400;2024-03-02T05:10:14;23.57;;;16.60;;
48006;SDS011;33771;48.180;11.400;2024-03-02T05:12:40;25.60;;;18.70;;
48006;SDS011;33771;48.180;11.400;2024-03-02T05:15:21;25.80;;;19.07;;
48006;SDS011;33771;48.180;11.400;2024-03-02T05:17:47;25.50;;;18.23;;
48006;SDS011;33771;48.180;11.400;2024-03-02T05:20:12;24.47;;;18.87;;
48006;SDS011;33771;48.180;11.400;2024-03-02T05:22:38;26.37;;;19.47;;
48006;SDS011;33771;48.180;11.400;2024-03-02T05:25:04;26.37;;;19.20;;
48006;SDS011;33771;48.180;11.400;2024-03-02T05:27:31;26.80;;;20.07;;
48006;SDS011;33771;48.180;11.400;2024-03-02T05:29:59;27.40;;;18.87;;
48006;SDS011;33771;48.180;11.400;2024-03-02T05:32:25;25.27;;;18.77;;
48006;SDS011;33771;48.180;11.400;2024-03-02T05:34:50;27.03;;;20.13;;
48006;SDS011;33771;48.180;11.400;2024-03-02T05:37:16;24.73;;;18.87;;
48006;SDS011;33771;48.180;11.400;2024-03-02T05:39:42;24.60;;;18.10;;
48006;SDS011;33771;48.180;11.400;2024-03-02T05:42:08;24.63;;;18.57;;
48006;SDS011;33771;48.180;11.400;2024-03-02T05:44:34;25.40;;;19.00;;
48006;SDS011;33771;48.180;11.400;2024-03-02T05:47:03;23.67;;;18.23;;
48006;SDS011;33771;48.180;11.400;2024-03-02T05:49:29;26.27;;;19.50;;
48006;SDS011;33771;48.180;11.400;2024-03-02T05:51:54;26.43;;;19.00;;
48006;SDS011;33771;48.180;11.400;2024-03-02T05:54:20;27.57;;;19.10;;
48006;SDS011;33771;48.180;11.400;2024-03-02T05:56:46;26.27;;;19.13;;
48006;SDS011;33771;48.180;11.400;2024-03-02T05:59:11;26.10;;;19.13;;
48006;SDS011;33771;48.180;11.400;2024-03-02T06:01:44;24.93;;;18.67;;
48006;SDS011;33771;48.180;11.400;2024-03-02T06:04:17;23.97;;;18.33;;
48006;SDS011;33771;48.180;11.400;2024-03-02T06:06:42;25.17;;;19.23;;
48006;SDS011;33771;48.180;11.400;2024-03-02T06:09:08;25.57;;;20.07;;
48006;SDS011;33771;48.180;11.400;2024-03-02T06:11:37;28.23;;;20.17;;
48006;SDS011;33771;48.180;11.400;2024-03-02T06:14:04;27.40;;;19.63;;
48006;SDS011;33771;48.180;11.400;2024-03-02T06:16:29;25.83;;;19.57;;
48006;SDS011;33771;48.180;11.400;2024-03-02T06:18:55;27.80;;;20.60;;
48006;SDS011;33771;48.180;11.400;2024-03-02T06:21:22;27.40;;;19.83;;
48006;SDS011;33771;48.180;11.400;2024-03-02T06:23:48;29.43;;;19.77;;
48006;SDS011;33771;48.180;11.400;2024-03-02T06:26:14;31.33;;;21.63;;
48006;SDS011;33771;48.180;11.400;2024-03-02T06:28:39;30.93;;;21.40;;
48006;SDS011;33771;48.180;11.400;2024-03-02T06:31:05;30.97;;;22.20;;
48006;SDS011;33771;48.180;11.400;2024-03-02T06:33:30;30.83;;;21.77;;
48006;SDS011;33771;48.180;11.400;2024-03-02T06:35:56;31.73;;;21.67;;
48006;SDS011;33771;48.180;11.400;2024-03-02T06:38:21;30.77;;;20.97;;
48006;SDS011;33771;48.180;11.400;2024-03-02T06:40:47;29.83;;;19.87;;
48006;SDS011;33771;48.180;11.400;2024-03-02T06:43:12;28.00;;;20.20;;
48006;SDS011;33771;48.180;11.400;2024-03-02T06:45:38;28.10;;;20.00;;
48006;SDS011;33771;48.180;11.400;2024-03-02T06:50:49;41.42;;;23.60;;
48006;SDS011;33771;48.180;11.400;2024-03-02T06:53:57;30.87;;;20.83;;
48006;SDS011;33771;48.180;11.400;2024-03-02T06:56:37;29.77;;;19.93;;
48006;SDS011;33771;48.180;11.400;2024-03-02T06:59:04;29.70;;;20.57;;
48006;SDS011;33771;48.180;11.400;2024-03-02T07:01:29;26.83;;;19.77;;
48006;SDS011;33771;48.180;11.400;2024-03-02T07:03:55;26.57;;;19.67;;
48006;SDS011;33771;48.180;11.400;2024-03-02T07:06:20;30.17;;;22.20;;
48006;SDS011;33771;48.180;11.400;2024-03-02T07:08:46;26.30;;;19.27;;
48006;SDS011;33771;48.180;11.400;2024-03-02T07:11:11;27.23;;;20.03;;
48006;SDS011;33771;48.180;11.400;2024-03-02T07:13:37;28.50;;;20.63;;
48006;SDS011;33771;48.180;11.400;2024-03-02T07:16:02;27.30;;;20.23;;
48006;SDS011;33771;48.180;11.400;2024-03-02T07:18:28;26.27;;;19.20;;
48006;SDS011;33771;48.180;11.400;2024-03-02T07:20:55;28.97;;;21.23;;
48006;SDS011;33771;48.180;11.400;2024-03-02T07:23:23;30.63;;;22.13;;
48006;SDS011;33771;48.180;11.400;2024-03-02T07:25:52;29.83;;;21.30;;
48006;SDS011;33771;48.180;11.400;2024-03-02T07:28:19;31.90;;;21.53;;
48006;SDS011;33771;48.180;11.400;2024-03-02T07:30:45;29.10;;;21.77;;
48006;SDS011;33771;48.180;11.400;2024-03-02T07:33:11;29.10;;;20.27;;
48006;SDS011;33771;48.180;11.400;2024-03-02T07:35:36;30.97;;;22.77;;
48006;SDS011;33771;48.180;11.400;2024-03-02T07:38:02;37.07;;;24.77;;
48006;SDS011;33771;48.180;11.400;2024-03-02T07:40:28;34.10;;;23.13;;
48006;SDS011;33771;48.180;11.400;2024-03-02T07:42:54;30.30;;;21.83;;
48006;SDS011;33771;48.180;11.400;2024-03-02T07:45:20;31.53;;;22.23;;
48006;SDS011;33771;48.180;11.400;2024-03-02T07:47:45;30.13;;;22.40;;
48006;SDS011;33771;48.180;11.400;2024-03-02T07:50:11;32.23;;;22.70;;
48006;SDS011;33771;48.180;11.400;2024-03-02T07:52:37;32.83;;;23.03;;
48006;SDS011;33771;48.180;11.400;2024-03-02T07:55:02;33.10;;;24.97;;
48006;SDS011;33771;48.180;11.400;2024-03-02T07:57:28;34.13;;;23.03;;
48006;SDS011;33771;48.180;11.400;2024-03-02T07:59:54;30.67;;;22.63;;
48006;SDS011;33771;48.180;11.400;2024-03-02T08:02:20;30.83;;;22.97;;
48006;SDS011;33771;48.180;11.400;2024-03-02T08:04:45;28.60;;;21.33;;
48006;SDS011;33771;48.180;11.400;2024-03-02T08:07:11;27.77;;;20.90;;
48006;SDS011;33771;48.180;11.400;2024-03-02T08:09:37;24.57;;;18.83;;
48006;SDS011;33771;48.180;11.400;2024-03-02T08:12:02;24.83;;;17.80;;
48006;SDS011;33771;48.180;11.400;2024-03-02T08:14:28;24.33;;;18.40;;
48006;SDS011;33771;48.180;11.400;2024-03-02T08:16:53;23.93;;;16.97;;
48006;SDS011;33771;48.180;11.400;2024-03-02T08:19:19;22.07;;;16.57;;
48006;SDS011;33771;48.180;11.400;2024-03-02T08:21:45;21.90;;;16.47;;
48006;SDS011;33771;48.180;11.400;2024-03-02T08:24:10;23.40;;;16.77;;
48006;SDS011;33771;48.180;11.400;2024-03-02T08:26:36;22.60;;;16.23;;
48006;SDS011;33771;48.180;11.400;2024-03-02T08:29:01;22.40;;;16.50;;
48006;SDS011;33771;48.180;11.400;2024-03-02T08:31:28;23.10;;;16.97;;
48006;SDS011;33771;48.180;11.400;2024-03-02T08:33:54;25.80;;;17.13;;
48006;SDS011;33771;48.180;11.400;2024-03-02T08:36:20;28.53;;;17.63;;
48006;SDS011;33771;48.180;11.400;2024-03-02T08:38:45;23.73;;;16.57;;
48006;SDS011;33771;48.180;11.400;2024-03-02T08:41:13;22.07;;;15.97;;
48006;SDS011;33771;48.180;11.400;2024-03-02T08:43:40;20.23;;;15.33;;
48006;SDS011;33771;48.180;11.400;2024-03-02T08:46:06;20.00;;;15.50;;
48006;SDS011;33771;48.180;11.400;2024-03-02T08:48:32;21.33;;;15.80;;
48006;SDS011;33771;48.180;11.400;2024-03-02T08:50:57;22.80;;;16.97;;
48006;SDS011;33771;48.180;11.400;2024-03-02T08:53:23;22.40;;;16.63;;
48006;SDS011;33771;48.180;11.400;2024-03-02T08:55:49;22.07;;;16.87;;
48006;SDS011;33771;48.180;11.400;2024-03-02T08:58:14;21.83;;;16.73;;
48006;SDS011;33771;48.180;11.400;2024-03-02T09:00:40;22.90;;;17.00;;
48006;SDS011;33771;48.180;11.400;2024-03-02T09:03:06;22.20;;;17.33;;
48006;SDS011;33771;48.180;11.400;2024-03-02T09:05:32;22.43;;;17.57;;
48006;SDS011;33771;48.180;11.400;2024-03-02T09:07:58;26.57;;;18.03;;
48006;SDS011;33771;48.180;11.400;2024-03-02T09:10:23;23.03;;;17.70;;
48006;SDS011;33771;48.180;11.400;2024-03-02T09:12:49;21.63;;;17.10;;
48006;SDS011;33771;48.180;11.400;2024-03-02T09:15:14;21.87;;;15.67;;
48006;SDS011;33771;48.180;11.400;2024-03-02T09:17:40;22.13;;;16.07;;
48006;SDS011;33771;48.180;11.400;2024-03-02T09:20:06;20.47;;;15.97;;
48006;SDS011;33771;48.180;11.400;2024-03-02T09:22:32;25.33;;;17.63;;
48006;SDS011;33771;48.180;11.400;2024-03-02T09:24:57;21.63;;;16.23;;
48006;SDS011;33771;48.180;11.400;2024-03-02T09:27:23;23.73;;;17.10;;
48006;SDS011;33771;48.180;11.400;2024-03-02T09:29:49;20.70;;;15.03;;
48006;SDS011;33771;48.180;11.400;2024-03-02T09:32:14;24.87;;;16.37;;
48006;SDS011;33771;48.180;11.400;2024-03-02T09:34:40;21.17;;;16.43;;
48006;SDS011;33771;48.180;11.400;2024-03-02T09:37:06;20.63;;;16.23;;
48006;SDS011;33771;48.180;11.400;2024-03-02T09:39:32;20.73;;;15.53;;
48006;SDS011;33771;48.180;11.400;2024-03-02T09:41:58;19.90;;;15.30;;
48006;SDS011;33771;48.180;11.400;2024-03-02T09:44:24;27.60;;;18.37;;
48006;SDS011;33771;48.180;11.400;2024-03-02T09:46:51;19.70;;;16.30;;
48006;SDS011;33771;48.180;11.400;2024-03-02T09:49:17;17.93;;;14.67;;
48006;SDS011;33771;48.180;11.400;2024-03-02T09:51:46;17.17;;;13.63;;
48006;SDS011;33771;48.180;11.400;2024-03-02T09:54:13;17.83;;;14.50;;
48006;SDS011;33771;48.180;11.400;2024-03-02T09:56:40;17.37;;;13.93;;
48006;SDS011;33771;48.180;11.400;2024-03-02T09:59:06;18.00;;;13.60;;
48006;SDS011;33771;48.180;11.400;2024-03-02T10:01:32;19.63;;;14.10;;
48006;SDS011;33771;48.180;11.400;2024-03-02T10:04:00;19.53;;;13.13;;
48006;SDS011;33771;48.180;11.400;2024-03-02T10:06:27;16.70;;;13.77;;
48006;SDS011;33771;48.180;11.400;2024-03-02T10:08:53;17.27;;;13.43;;
48006;SDS011;33771;48.180;11.400;2024-03-02T10:16:37;18.10;;;13.93;;
48006;SDS011;33771;48.180;11.400;2024-03-02T10:19:19;19.60;;;14.63;;
48006;SDS011;33771;48.180;11.400;2024-03-02T10:21:52;17.33;;;13.33;;
48006;SDS011;33771;48.180;11.400;2024-03-02T10:24:19;20.60;;;14.20;;
48006;SDS011;33771;48.180;11.400;2024-03-02T10:26:48;17.83;;;12.23;;
48006;SDS011;33771;48.180;11.400;2024-03-02T10:29:14;19.83;;;12.87;;
48006;SDS011;33771;48.180;11.400;2024-03-02T10:31:40;17.27;;;11.77;;
48006;SDS011;33771;48.180;11.400;2024-03-02T10:34:07;16.23;;;11.10;;
48006;SDS011;33771;48.180;11.400;2024-03-02T10:36:33;16.42;;;12.05;;
48006;SDS011;33771;48.180;11.400;2024-03-02T10:39:05;15.90;;;11.70;;
48006;SDS011;33771;48.180;11.400;2024-03-02T10:41:35;20.70;;;13.55;;
48006;SDS011;33771;48.180;11.400;2024-03-02T10:44:05;15.20;;;11.02;;
48006;SDS011;33771;48.180;11.400;2024-03-02T10:46:33;15.18;;;11.35;;
48006;SDS011;33771;48.180;11.400;2024-03-02T10:49:01;16.77;;;12.85;;
48006;SDS011;33771;48.180;11.400;2024-03-02T10:51:29;17.35;;;11.55;;
48006;SDS011;33771;48.180;11.400;2024-03-02T10:53:57;17.80;;;12.23;;
48006;SDS011;33771;48.180;11.400;2024-03-02T10:56:33;15.65;;;11.70;;
48006;SDS011;33771;48.180;11.400;2024-03-02T10:59:03;15.73;;;11.00;;
48006;SDS011;33771;48.180;11.400;2024-03-02T11:01:41;14.50;;;10.73;;
48006;SDS011;33771;48.180;11.400;2024-03-02T11:04:08;16.40;;;10.40;;
48006;SDS011;33771;48.180;11.400;2024-03-02T11:06:36;14.73;;;10.40;;
48006;SDS011;33771;48.180;11.400;2024-03-02T11:09:05;14.82;;;10.90;;
48006;SDS011;33771;48.180;11.400;2024-03-02T11:11:36;13.02;;;9.00;;
48006;SDS011;33771;48.180;11.400;2024-03-02T11:14:04;10.40;;;8.18;;
48006;SDS011;33771;48.180;11.400;2024-03-02T11:16:36;12.70;;;8.47;;
48006;SDS011;33771;48.180;11.400;2024-03-02T11:19:05;12.80;;;8.70;;
48006;SDS011;33771;48.180;11.400;2024-03-02T11:31:59;11.70;;;7.80;;
48006;SDS011;33771;48.180;11.400;2024-03-02T11:46:41;13.40;;;8.80;;
48006;SDS011;33771;48.180;11.400;2024-03-02T12:03:59;21.80;;;13.20;;
48006;SDS011;33771;48.180;11.400;2024-03-02T12:06:24;16.87;;;11.30;;
48006;SDS011;33771;48.180;11.400;2024-03-02T13:07:31;21.30;;;14.90;;
48006;SDS011;33771;48.180;11.400;2024-03-02T13:09:57;22.30;;;13.30;;
48006;SDS011;33771;48.180;11.400;2024-03-02T13:12:24;16.90;;;11.80;;
48006;SDS011;33771;48.180;11.400;2024-03-02T16:03:05;22.30;;;15.60;;
48006;SDS011;33771;48.180;11.400;2024-03-02T16:05:31;22.80;;;16.55;;
48006;SDS011;33771;48.180;11.400;2024-03-02T16:15:13;21.70;;;15.70;;
48006;SDS011;33771;48.180;11.400;2024-03-02T16:17:39;22.30;;;15.60;;
48006;SDS011;33771;48.180;11.400;2024-03-02T16:20:05;27.63;;;18.20;;
48006;SDS011;33771;48.180;11.400;2024-03-02T16:22:31;25.27;;;17.67;;
48006;SDS011;33771;48.180;11.400;2024-03-02T16:25:00;26.05;;;18.05;;
48006;SDS011;33771;48.180;11.400;2024-03-02T16:27:26;28.50;;;18.10;;
48006;SDS011;33771;48.180;11.400;2024-03-02T16:29:52;28.17;;;17.80;;
48006;SDS011;33771;48.180;11.400;2024-03-02T16:32:19;27.53;;;18.77;;
48006;SDS011;33771;48.180;11.400;2024-03-02T16:34:45;27.67;;;18.13;;
48006;SDS011;33771;48.180;11.400;2024-03-02T16:37:11;29.45;;;18.70;;
48006;SDS011;33771;48.180;11.400;2024-03-02T16:39:36;47.00;;;28.73;;
48006;SDS011;33771;48.180;11.400;2024-03-02T16:42:02;30.37;;;20.33;;
48006;SDS011;33771;48.180;11.400;2024-03-02T16:44:28;30.50;;;19.50;;
48006;SDS011;33771;48.180;11.400;2024-03-02T16:46:54;31.03;;;20.13;;
48006;SDS011;33771;48.180;11.400;2024-03-02T16:49:19;28.50;;;19.10;;
48006;SDS011;33771;48.180;11.400;2024-03-02T16:51:45;35.03;;;20.60;;
48006;SDS011;33771;48.180;11.400;2024-03-02T16:54:11;28.97;;;19.07;;
48006;SDS011;33771;48.180;11.400;2024-03-02T16:56:38;33.10;;;20.00;;
48006;SDS011;33771;48.180;11.400;2024-03-02T16:59:07;32.33;;;20.63;;
48006;SDS011;33771;48.180;11.400;2024-03-02T17:01:33;34.50;;;21.27;;
48006;SDS011;33771;48.180;11.400;2024-03-02T17:03:59;35.83;;;21.57;;
48006;SDS011;33771;48.180;11.400;2024-03-02T17:06:25;35.87;;;22.20;;
48006;SDS011;33771;48.180;11.400;2024-03-02T17:08:51;32.93;;;19.70;;
48006;SDS011;33771;48.180;11.400;2024-03-02T17:11:17;34.03;;;21.27;;
48006;SDS011;33771;48.180;11.400;2024-03-02T17:13:43;36.33;;;20.97;;
48006;SDS011;33771;48.180;11.400;2024-03-02T17:16:10;33.90;;;20.50;;
48006;SDS011;33771;48.180;11.400;2024-03-02T17:18:36;34.37;;;21.03;;
48006;SDS011;33771;48.180;11.400;2024-03-02T17:21:02;34.83;;;21.37;;
48006;SDS011;33771;48.180;11.400;2024-03-02T17:23:28;35.23;;;22.07;;
48006;SDS011;33771;48.180;11.400;2024-03-02T17:25:56;38.80;;;23.00;;
48006;SDS011;33771;48.180;11.400;2024-03-02T17:28:25;34.57;;;22.20;;
48006;SDS011;33771;48.180;11.400;2024-03-02T17:30:54;38.23;;;24.43;;
48006;SDS011;33771;48.180;11.400;2024-03-02T17:33:20;38.83;;;23.13;;
48006;SDS011;33771;48.180;11.400;2024-03-02T17:35:46;38.57;;;23.10;;
48006;SDS011;33771;48.180;11.400;2024-03-02T17:38:15;42.73;;;25.17;;
48006;SDS011;33771;48.180;11.400;2024-03-02T17:40:41;45.07;;;23.90;;
48006;SDS011;33771;48.180;11.400;2024-03-02T17:43:08;41.73;;;24.23;;
48006;SDS011;33771;48.180;11.400;2024-03-02T17:45:34;40.20;;;23.97;;
48006;SDS011;33771;48.180;11.400;2024-03-02T17:47:59;39.50;;;24.60;;
48006;SDS011;33771;48.180;11.400;2024-03-02T17:50:25;41.43;;;24.73;;
48006;SDS011;33771;48.180;11.400;2024-03-02T17:52:51;44.27;;;27.27;;
48006;SDS011;33771;48.180;11.400;2024-03-02T17:55:16;43.30;;;26.47;;
48006;SDS011;33771;48.180;11.400;2024-03-02T17:57:42;42.83;;;26.00;;
48006;SDS011;33771;48.180;11.400;2024-03-02T18:00:07;42.67;;;27.53;;
48006;SDS011;33771;48.180;11.400;2024-03-02T18:02:38;45.73;;;27.17;;
48006;SDS011;33771;48.180;11.400;2024-03-02T18:05:07;46.97;;;27.17;;
48006;SDS011;33771;48.180;11.400;2024-03-02T18:07:34;50.33;;;28.47;;
48006;SDS011;33771;48.180;11.400;2024-03-02T18:10:01;49.37;;;28.93;;
48006;SDS011;33771;48.180;11.400;2024-03-02T18:12:27;52.43;;;29.30;;
48006;SDS011;33771;48.180;11.400;2024-03-02T18:14:53;47.80;;;28.10;;
48006;SDS011;33771;48.180;11.400;2024-03-02T18:17:18;50.67;;;29.23;;
48006;SDS011;33771;48.180;11.400;2024-03-02T18:19:44;49.37;;;28.80;;
48006;SDS011;33771;48.180;11.400;2024-03-02T18:22:10;51.87;;;30.33;;
48006;SDS011;33771;48.180;11.400;2024-03-02T18:24:35;47.60;;;29.20;;
48006;SDS011;33771;48.180;11.400;2024-03-02T18:27:01;49.70;;;29.70;;
48006;SDS011;33771;48.180;11.400;2024-03-02T18:29:27;46.53;;;28.13;;
48006;SDS011;33771;48.180;11.400;2024-03-02T18:31:52;51.37;;;30.97;;
48006;SDS011;33771;48.180;11.400;2024-03-02T18:34:18;49.27;;;31.23;;
48006;SDS011;33771;48.180;11.400;2024-03-02T18:36:44;48.97;;;30.07;;
48006;SDS011;33771;48.180;11.400;2024-03-02T18:39:10;46.00;;;28.67;;
48006;SDS011;33771;48.180;11.400;2024-03-02T18:41:35;51.03;;;31.03;;
48006;SDS011;33771;48.180;11.400;2024-03-02T18:44:01;47.60;;;29.50;;
48006;SDS011;33771;48.180;11.400;2024-03-02T18:46:28;50.10;;;30.33;;
48006;SDS011;33771;48.180;11.400;2024-03-02T18:48:54;51.77;;;30.87;;